TimeMDT,TemperatureF,Dew PointF,Humidity,Sea Level PressureIn,VisibilityMPH,Wind Direction,Wind SpeedMPH,Gust SpeedMPH,PrecipitationIn,Events,Conditions,WindDirDegrees,DateUTC
12:15 AM,26.6,23.0,86,30.36,-9999.0,NW,38.0,-,N/A,,Overcast,310,2013-10-15 06:15:00
12:35 AM,24.8,23.0,93,30.36,-9999.0,NW,32.2,-,N/A,,Overcast,310,2013-10-15 06:35:00
12:55 AM,26.6,24.8,93,30.36,-9999.0,NW,29.9,-,N/A,,Overcast,310,2013-10-15 06:55:00
1:15 AM,26.6,24.8,93,30.35,-9999.0,NW,33.4,-,N/A,,Overcast,310,2013-10-15 07:15:00
1:35 AM,26.6,24.8,93,30.34,-9999.0,WNW,38.0,-,N/A,,Overcast,300,2013-10-15 07:35:00
1:55 AM,26.6,24.8,93,30.34,-9999.0,WNW,35.7,-,N/A,,Overcast,300,2013-10-15 07:55:00
2:15 AM,26.6,24.8,93,30.35,-9999.0,WNW,35.7,41.4,N/A,,Overcast,300,2013-10-15 08:15:00
2:35 AM,26.6,24.8,93,30.35,-9999.0,WNW,35.7,-,N/A,,Overcast,300,2013-10-15 08:35:00
2:55 AM,26.6,24.8,93,30.35,-9999.0,WNW,34.5,-,N/A,,Overcast,300,2013-10-15 08:55:00
3:15 AM,24.8,23.0,93,30.35,-9999.0,WNW,34.5,-,N/A,,Overcast,300,2013-10-15 09:15:00
3:35 AM,24.8,23.0,93,30.35,-9999.0,WNW,33.4,-,N/A,,Overcast,300,2013-10-15 09:35:00
3:55 AM,24.8,23.0,93,30.34,-9999.0,WNW,31.1,-,N/A,,Overcast,300,2013-10-15 09:55:00
4:15 AM,26.6,24.8,93,30.34,-9999.0,WNW,32.2,-,N/A,,Overcast,300,2013-10-15 10:15:00
4:35 AM,26.6,24.8,93,30.33,-9999.0,WNW,33.4,-,N/A,,Overcast,300,2013-10-15 10:35:00
4:55 AM,24.8,23.0,93,30.34,-9999.0,WNW,31.1,-,N/A,,Overcast,300,2013-10-15 10:55:00
5:15 AM,24.8,23.0,93,30.34,-9999.0,WNW,31.1,-,N/A,,Unknown,300,2013-10-15 11:15:00
5:35 AM,24.8,23.0,93,30.33,-9999.0,WNW,32.2,-,N/A,,Overcast,300,2013-10-15 11:35:00
5:55 AM,24.8,23.0,93,30.34,-9999.0,WNW,31.1,-,N/A,,Overcast,300,2013-10-15 11:55:00
6:15 AM,23.0,23.0,100,30.34,-9999.0,WNW,32.2,-,N/A,,Overcast,300,2013-10-15 12:15:00
6:35 AM,23.0,23.0,100,30.34,-9999.0,WNW,28.8,-,N/A,,Overcast,300,2013-10-15 12:35:00
6:55 AM,-9999,-9999,N/A,30.34,-9999.0,WNW,28.8,-,N/A,,Overcast,300,2013-10-15 12:55:00
7:15 AM,-9999,-9999,N/A,30.34,-9999.0,NW,26.5,-,N/A,,Overcast,310,2013-10-15 13:15:00
7:35 AM,-9999,-9999,N/A,30.35,-9999.0,NW,24.2,-,N/A,,Overcast,310,2013-10-15 13:35:00
7:55 AM,-9999,-9999,N/A,30.35,-9999.0,NW,21.9,-,N/A,,Unknown,310,2013-10-15 13:55:00
8:15 AM,-9999,-9999,N/A,30.36,-9999.0,NW,18.4,-,N/A,,Unknown,310,2013-10-15 14:15:00
8:35 AM,-9999,-9999,N/A,30.37,-9999.0,North,-9999.0,-,N/A,,Unknown,0,2013-10-15 14:35:00
8:55 AM,-9999,-9999,N/A,30.38,-9999.0,NW,16.1,-,N/A,,Unknown,310,2013-10-15 14:55:00
9:15 AM,-9999,-9999,N/A,30.38,-9999.0,NW,13.8,-,N/A,,Unknown,310,2013-10-15 15:15:00
9:35 AM,-9999,-9999,N/A,30.38,-9999.0,NW,11.5,-,N/A,,Overcast,310,2013-10-15 15:35:00
9:55 AM,-9999,-9999,N/A,30.38,-9999.0,NW,10.4,-,N/A,,Unknown,310,2013-10-15 15:55:00
10:15 AM,-9999,-9999,N/A,30.38,-9999.0,WNW,10.4,-,N/A,,Unknown,300,2013-10-15 16:15:00
10:35 AM,-9999,-9999,N/A,30.38,-9999.0,NW,9.2,-,N/A,,Overcast,310,2013-10-15 16:35:00
10:55 AM,23.0,23.0,100,30.38,-9999.0,NW,10.4,-,N/A,,Unknown,310,2013-10-15 16:55:00
11:15 AM,24.8,23.0,93,30.38,-9999.0,NW,9.2,-,N/A,,Unknown,310,2013-10-15 17:15:00
11:35 AM,24.8,23.0,93,30.38,-9999.0,NW,5.8,-,N/A,,Unknown,310,2013-10-15 17:35:00
11:55 AM,-9999,-9999,N/A,30.38,-9999.0,WNW,6.9,-,N/A,,Unknown,300,2013-10-15 17:55:00
12:15 PM,-9999,-9999,N/A,30.37,-9999.0,WNW,6.9,-,N/A,,Unknown,300,2013-10-15 18:15:00
12:35 PM,-9999,-9999,N/A,30.36,-9999.0,North,-9999.0,-,N/A,,Unknown,0,2013-10-15 18:35:00
12:55 PM,-9999,-9999,N/A,30.36,-9999.0,WNW,9.2,-,N/A,,Unknown,300,2013-10-15 18:55:00
1:15 PM,-9999,-9999,N/A,30.35,-9999.0,North,-9999.0,-,N/A,,Unknown,0,2013-10-15 19:15:00
1:35 PM,-9999,-9999,N/A,30.34,-9999.0,North,-9999.0,-,N/A,,Unknown,0,2013-10-15 19:35:00
1:55 PM,-9999,-9999,N/A,30.33,-9999.0,WNW,8.1,-,N/A,,Unknown,300,2013-10-15 19:55:00
2:15 PM,-9999,-9999,N/A,30.33,-9999.0,WNW,6.9,-,N/A,,Unknown,290,2013-10-15 20:15:00
2:35 PM,-9999,-9999,N/A,30.32,-9999.0,West,5.8,-,N/A,,Mostly Cloudy,280,2013-10-15 20:35:00
2:55 PM,-9999,-9999,N/A,30.31,-9999.0,West,4.6,-,N/A,,Unknown,280,2013-10-15 20:55:00
3:15 PM,26.6,24.8,93,30.31,-9999.0,WNW,6.9,-,N/A,,Unknown,290,2013-10-15 21:15:00
3:35 PM,26.6,24.8,93,30.30,-9999.0,WNW,6.9,-,N/A,,Unknown,290,2013-10-15 21:35:00
3:55 PM,26.6,24.8,93,30.30,-9999.0,WNW,6.9,-,N/A,,Unknown,300,2013-10-15 21:55:00
4:15 PM,26.6,24.8,93,30.30,-9999.0,NW,6.9,-,N/A,,Unknown,310,2013-10-15 22:15:00
4:35 PM,26.6,24.8,93,30.30,-9999.0,WNW,4.6,-,N/A,,Unknown,300,2013-10-15 22:35:00
4:55 PM,26.6,24.8,93,30.29,-9999.0,NW,3.5,-,N/A,,Unknown,310,2013-10-15 22:55:00
5:15 PM,26.6,23.0,86,30.29,-9999.0,Calm,Calm,-,N/A,,Unknown,0,2013-10-15 23:15:00
5:35 PM,26.6,23.0,86,30.28,-9999.0,Calm,Calm,-,N/A,,Unknown,0,2013-10-15 23:35:00
5:55 PM,26.6,23.0,86,30.28,-9999.0,SSW,3.5,-,N/A,,Unknown,200,2013-10-15 23:55:00
6:15 PM,26.6,23.0,86,30.28,-9999.0,SSE,6.9,-,N/A,,Unknown,160,2013-10-16 00:15:00
6:35 PM,26.6,23.0,86,30.28,-9999.0,SSE,6.9,-,N/A,,Unknown,160,2013-10-16 00:35:00
6:55 PM,26.6,23.0,86,30.28,-9999.0,SSE,4.6,-,N/A,,Unknown,150,2013-10-16 00:55:00
7:15 PM,26.6,23.0,86,30.28,-9999.0,SSE,4.6,-,N/A,,Unknown,150,2013-10-16 01:15:00
7:35 PM,26.6,23.0,86,30.28,-9999.0,SSE,6.9,-,N/A,,Unknown,160,2013-10-16 01:35:00
7:55 PM,26.6,23.0,86,30.27,-9999.0,SE,5.8,-,N/A,,Unknown,140,2013-10-16 01:55:00
8:15 PM,26.6,23.0,86,30.27,-9999.0,SSE,4.6,-,N/A,,Unknown,150,2013-10-16 02:15:00
8:35 PM,26.6,23.0,86,30.27,-9999.0,SE,6.9,-,N/A,,Unknown,140,2013-10-16 02:35:00
8:55 PM,26.6,21.2,80,30.26,-9999.0,SE,5.8,-,N/A,,Unknown,140,2013-10-16 02:55:00
9:15 PM,26.6,21.2,80,30.26,-9999.0,SE,5.8,-,N/A,,Unknown,140,2013-10-16 03:15:00
9:35 PM,26.6,21.2,80,30.26,-9999.0,SSE,8.1,-,N/A,,Unknown,160,2013-10-16 03:35:00
9:55 PM,26.6,21.2,80,30.26,-9999.0,SSE,4.6,-,N/A,,Unknown,160,2013-10-16 03:55:00
10:15 PM,26.6,23.0,86,30.25,-9999.0,SSE,3.5,-,N/A,,Unknown,150,2013-10-16 04:15:00
10:35 PM,26.6,21.2,80,30.25,-9999.0,SSE,8.1,-,N/A,,Unknown,160,2013-10-16 04:35:00
10:55 PM,26.6,21.2,80,30.24,-9999.0,South,11.5,-,N/A,,Unknown,180,2013-10-16 04:55:00
11:15 PM,26.6,23.0,86,30.25,-9999.0,South,11.5,-,N/A,,Unknown,180,2013-10-16 05:15:00
11:35 PM,26.6,21.2,80,30.24,-9999.0,South,12.7,-,N/A,,Unknown,190,2013-10-16 05:35:00
11:55 PM,26.6,21.2,80,30.24,-9999.0,South,10.4,-,N/A,,Unknown,170,2013-10-16 05:55:00